TimeEDT,TemperatureF,Dew PointF,Humidity,Sea Level PressureIn,VisibilityMPH,Wind Direction,Wind SpeedMPH,Gust SpeedMPH,PrecipitationIn,Events,Conditions,WindDirDegrees,DateUTC
12:56 AM,43.0,30.0,60,30.08,10.0,West,3.5,-,N/A,,Clear,270,2013-10-28 04:56:00
1:56 AM,44.1,28.9,55,30.08,10.0,WNW,5.8,-,N/A,,Clear,290,2013-10-28 05:56:00
2:56 AM,44.1,28.0,53,30.09,10.0,NW,5.8,-,N/A,,Clear,320,2013-10-28 06:56:00
3:56 AM,42.1,28.9,60,30.09,10.0,NW,3.5,-,N/A,,Clear,320,2013-10-28 07:56:00
4:56 AM,39.0,30.0,70,30.10,10.0,Calm,Calm,-,N/A,,Clear,0,2013-10-28 08:56:00
5:56 AM,34.0,28.9,82,30.12,10.0,Calm,Calm,-,N/A,,Clear,0,2013-10-28 09:56:00
6:56 AM,33.1,28.0,82,30.13,10.0,Calm,Calm,-,N/A,,Clear,0,2013-10-28 10:56:00
7:56 AM,34.0,30.9,89,30.14,10.0,Calm,Calm,-,N/A,,Clear,0,2013-10-28 11:56:00
8:56 AM,48.0,35.1,61,30.17,10.0,WSW,6.9,-,N/A,,Clear,240,2013-10-28 12:56:00
9:56 AM,52.0,34.0,50,30.17,10.0,West,8.1,-,N/A,,Clear,260,2013-10-28 13:56:00
10:56 AM,55.9,37.0,49,30.16,10.0,WSW,13.8,21.9,N/A,,Clear,240,2013-10-28 14:56:00
11:56 AM,57.0,30.9,37,30.15,10.0,WSW,13.8,23.0,N/A,,Clear,240,2013-10-28 15:56:00
12:56 PM,57.9,30.9,36,30.13,10.0,WSW,17.3,21.9,N/A,,Clear,250,2013-10-28 16:56:00
1:56 PM,59.0,37.0,44,30.11,10.0,SW,19.6,26.5,N/A,,Clear,230,2013-10-28 17:56:00
2:56 PM,57.9,37.9,47,30.12,10.0,SW,19.6,26.5,N/A,,Clear,230,2013-10-28 18:56:00
3:56 PM,57.9,37.0,46,30.14,10.0,WSW,12.7,21.9,N/A,,Clear,250,2013-10-28 19:56:00
4:56 PM,57.0,37.9,49,30.14,10.0,WSW,9.2,-,N/A,,Scattered Clouds,250,2013-10-28 20:56:00
5:56 PM,55.0,37.9,53,30.17,10.0,Variable,4.6,-,N/A,,Scattered Clouds,0,2013-10-28 21:56:00
6:56 PM,53.1,34.0,48,30.21,10.0,NW,3.5,-,N/A,,Clear,310,2013-10-28 22:56:00
7:56 PM,51.1,34.0,52,30.24,10.0,WNW,4.6,-,N/A,,Partly Cloudy,300,2013-10-28 23:56:00
8:56 PM,51.1,36.0,56,30.26,10.0,North,13.8,20.7,N/A,,Clear,360,2013-10-29 00:56:00
9:56 PM,50.0,36.0,59,30.29,10.0,North,12.7,-,N/A,,Partly Cloudy,10,2013-10-29 01:56:00
10:56 PM,48.9,34.0,56,30.30,10.0,NNE,11.5,19.6,N/A,,Mostly Cloudy,20,2013-10-29 02:56:00
11:56 PM,48.9,32.0,52,30.31,10.0,North,11.5,-,N/A,,Overcast,10,2013-10-29 03:56:00